Ladbroke Grove, United Kingdom
Current Conditions -  °F | °C
As of 2:50 PM on Thursday 23 Oct 2014 (Local Time) from EGWU Reporting Station
Broken Clouds Broken Clouds  
Wind Chill: 61°   Ceiling: 2200
Heat Index: 61°   Visibility: 6mi
Dew Point: 52°   Wind: 9mph
Humidity: 72%   Direction: 220°SW
Pressure: 30.06"   Gusts: NA
Location:  51.53°N, 0.22°W
Report Text: EGWU 231350Z 22008KT 9999 FEW020 BKN022 BKN038 16/11 Q1018 NOSIG
Loading
Personal Weather Stations






























Interactive Weather Map
Tropical Storm Tracking
New forecast layout! Learn more

10-Day Weather Forecast

Advertisements
Track Severe Weather on mobile